createdAt,value
2023-05-19T00:00:00.700Z,4.28
2023-05-19T00:00:13.697Z,4.38
2023-05-19T00:00:25.950Z,4.40
2023-05-19T00:00:38.286Z,4.38
2023-05-19T00:00:51.060Z,4.35
2023-05-19T00:01:03.495Z,4.30
2023-05-19T00:01:15.849Z,4.90
2023-05-19T00:01:28.354Z,4.85
2023-05-19T00:01:40.734Z,4.75
2023-05-19T00:01:53.214Z,4.22
2023-05-19T00:02:05.651Z,4.30
2023-05-19T00:02:18.053Z,4.25
2023-05-19T00:02:30.686Z,3.85
2023-05-19T00:02:43.070Z,4.10
2023-05-19T00:02:55.328Z,4.00
2023-05-19T00:03:07.774Z,3.88
2023-05-19T00:03:20.423Z,3.78
2023-05-19T00:03:33.157Z,3.70
2023-05-19T00:03:52.165Z,3.70
2023-05-19T00:04:04.614Z,3.60
2023-05-19T00:04:17.221Z,3.33
2023-05-19T00:04:29.716Z,3.65
2023-05-19T00:04:41.888Z,3.65
2023-05-19T00:04:54.374Z,3.63
2023-05-19T00:05:07.316Z,3.58
2023-05-19T00:05:19.839Z,3.38
2023-05-19T00:05:32.338Z,3.35
2023-05-19T00:05:45.176Z,3.55
2023-05-19T00:05:58.457Z,3.80
2023-05-19T00:06:10.556Z,3.40
2023-05-19T00:06:24.261Z,2.95
2023-05-19T00:06:38.100Z,3.03
2023-05-19T00:06:51.126Z,3.40
2023-05-19T00:07:03.843Z,3.58
2023-05-19T00:07:18.451Z,3.45
2023-05-19T00:07:31.717Z,3.22
2023-05-19T00:07:44.447Z,3.10
2023-05-19T00:07:59.459Z,3.42
2023-05-19T00:08:12.027Z,3.85
2023-05-19T00:08:24.297Z,4.68
2023-05-19T00:08:38.948Z,6.13
2023-05-19T00:08:56.893Z,8.05
2023-05-19T00:09:10.386Z,10.43
2023-05-19T00:09:22.787Z,10.82
2023-05-19T00:09:34.995Z,12.75
2023-05-19T00:09:47.449Z,18.13
2023-05-19T00:09:59.992Z,19.73
2023-05-19T00:10:12.896Z,15.25
2023-05-19T00:10:25.473Z,11.80
2023-05-19T00:10:38.382Z,10.45
2023-05-19T00:10:50.798Z,8.57
2023-05-19T00:11:03.070Z,5.97
2023-05-19T00:11:15.352Z,4.90
2023-05-19T00:11:28.354Z,4.78
2023-05-19T00:11:40.607Z,4.40
2023-05-19T00:11:53.004Z,4.10
2023-05-19T00:12:05.590Z,4.28
2023-05-19T00:12:18.040Z,5.20
2023-05-19T00:12:30.258Z,5.93
2023-05-19T00:12:43.432Z,6.28
2023-05-19T00:12:55.598Z,5.75
2023-05-19T00:13:08.243Z,4.35
2023-05-19T00:13:21.510Z,3.38
2023-05-19T00:13:33.907Z,3.30
2023-05-19T00:13:46.571Z,3.22
2023-05-19T00:13:59.976Z,3.30
2023-05-19T00:14:12.661Z,3.38
2023-05-19T00:14:24.951Z,3.30
2023-05-19T00:14:37.183Z,3.20
2023-05-19T00:14:49.404Z,3.17
2023-05-19T00:15:01.864Z,3.22
2023-05-19T00:15:14.625Z,3.40
2023-05-19T00:15:27.197Z,2.95
2023-05-19T00:15:39.575Z,2.92
2023-05-19T00:15:51.957Z,3.17
2023-05-19T00:16:04.435Z,3.53
2023-05-19T00:16:17.105Z,3.83
2023-05-19T00:16:30.629Z,3.80
2023-05-19T00:16:42.997Z,3.25
2023-05-19T00:16:55.139Z,3.35
2023-05-19T00:17:07.798Z,3.65
2023-05-19T00:17:20.075Z,4.07
2023-05-19T00:17:32.404Z,4.05
2023-05-19T00:17:44.193Z,4.25
2023-05-19T00:17:56.099Z,4.45
2023-05-19T00:18:07.909Z,4.60
2023-05-19T00:18:19.913Z,4.03
2023-05-19T00:18:31.709Z,3.35
2023-05-19T00:18:43.511Z,3.50
2023-05-19T00:18:55.561Z,3.72
2023-05-19T00:19:07.478Z,3.55
2023-05-19T00:19:19.364Z,3.50
2023-05-19T00:19:31.125Z,3.40
2023-05-19T00:19:43.047Z,3.13
2023-05-19T00:19:54.913Z,2.97
2023-05-19T00:20:08.012Z,3.15
2023-05-19T00:20:19.908Z,3.45
2023-05-19T00:20:32.038Z,3.40
2023-05-19T00:20:44.134Z,3.10
2023-05-19T00:20:55.958Z,3.33
2023-05-19T00:21:07.874Z,3.60
2023-05-19T00:21:20.064Z,3.40
2023-05-19T00:21:32.279Z,3.10
2023-05-19T00:21:45.472Z,3.47
2023-05-19T00:21:57.258Z,4.07
2023-05-19T00:22:09.034Z,3.92
2023-05-19T00:22:20.841Z,3.50
2023-05-19T00:22:32.823Z,3.00
2023-05-19T00:22:44.703Z,2.80
2023-05-19T00:22:56.666Z,3.00
2023-05-19T00:23:08.504Z,2.97
2023-05-19T00:23:20.242Z,2.85
2023-05-19T00:23:32.029Z,2.78
2023-05-19T00:23:44.003Z,3.00
2023-05-19T00:23:56.164Z,3.13
2023-05-19T00:24:08.179Z,3.10
2023-05-19T00:24:20.038Z,3.00
2023-05-19T00:24:31.984Z,3.15
2023-05-19T00:24:43.864Z,3.17
2023-05-19T00:24:55.734Z,3.42
2023-05-19T00:25:08.277Z,3.70
2023-05-19T00:25:20.086Z,3.90
2023-05-19T00:25:32.094Z,5.53
2023-05-19T00:25:43.908Z,6.95
2023-05-19T00:25:55.703Z,6.78
2023-05-19T00:26:07.650Z,5.25
2023-05-19T00:26:19.562Z,4.43
2023-05-19T00:26:40.324Z,3.95
2023-05-19T00:26:52.069Z,3.80
2023-05-19T00:27:04.407Z,3.47
2023-05-19T00:27:16.239Z,3.28
2023-05-19T00:27:28.038Z,2.92
2023-05-19T00:27:39.992Z,3.10
2023-05-19T00:27:52.845Z,3.05
2023-05-19T00:28:04.979Z,3.10
2023-05-19T00:28:16.796Z,3.05
2023-05-19T00:28:28.771Z,3.08
2023-05-19T00:28:40.554Z,3.10
2023-05-19T00:28:53.191Z,2.90
2023-05-19T00:29:05.625Z,3.00
2023-05-19T00:29:17.611Z,3.08
2023-05-19T00:29:29.592Z,3.50
2023-05-19T00:29:41.614Z,3.60
2023-05-19T00:29:53.550Z,3.90
2023-05-19T00:30:07.071Z,3.60
2023-05-19T00:30:18.916Z,3.75
2023-05-19T00:30:31.207Z,3.75
2023-05-19T00:30:43.482Z,3.55
2023-05-19T00:30:55.406Z,3.25
2023-05-19T00:31:07.574Z,3.08
2023-05-19T00:31:19.471Z,3.08
2023-05-19T00:31:31.406Z,3.17
2023-05-19T00:31:43.267Z,3.25
2023-05-19T00:31:56.507Z,3.05
2023-05-19T00:32:08.456Z,2.92
2023-05-19T00:32:20.403Z,3.03
2023-05-19T00:32:32.345Z,2.95
2023-05-19T00:32:44.401Z,3.00
2023-05-19T00:32:56.651Z,3.10
2023-05-19T00:33:08.644Z,2.90
2023-05-19T00:33:20.578Z,3.20
2023-05-19T00:33:32.544Z,2.86
2023-05-19T00:33:45.002Z,3.00
2023-05-19T00:33:56.896Z,3.00
2023-05-19T00:34:08.723Z,3.05
2023-05-19T00:34:20.513Z,2.83
2023-05-19T00:34:32.943Z,2.90
2023-05-19T00:34:44.793Z,2.80
2023-05-19T00:34:56.643Z,2.65
2023-05-19T00:35:09.140Z,2.80
2023-05-19T00:35:21.234Z,3.08
2023-05-19T00:35:33.298Z,3.20
2023-05-19T00:35:45.188Z,3.00
2023-05-19T00:35:57.107Z,2.92
2023-05-19T00:36:09.534Z,2.80
2023-05-19T00:36:21.331Z,2.70
2023-05-19T00:36:33.165Z,2.50
2023-05-19T00:36:46.390Z,2.60
2023-05-19T00:36:59.080Z,2.60
2023-05-19T00:37:10.930Z,2.58
2023-05-19T00:37:22.828Z,2.67
2023-05-19T00:37:34.605Z,2.90
2023-05-19T00:37:46.438Z,3.30
2023-05-19T00:37:58.204Z,3.05
2023-05-19T00:38:10.043Z,2.50
2023-05-19T00:38:21.814Z,2.42
2023-05-19T00:38:35.897Z,2.58
2023-05-19T00:38:47.676Z,2.83
2023-05-19T00:38:59.467Z,2.92
2023-05-19T00:39:11.273Z,2.65
2023-05-19T00:39:23.107Z,2.45
2023-05-19T00:39:35.090Z,2.70
2023-05-19T00:39:46.864Z,3.05
2023-05-19T00:39:58.583Z,3.00
2023-05-19T00:40:10.809Z,2.70
2023-05-19T00:40:24.549Z,2.67
2023-05-19T00:40:36.492Z,2.42
2023-05-19T00:40:48.359Z,2.50
2023-05-19T00:41:00.849Z,2.63
2023-05-19T00:41:12.728Z,2.70
2023-05-19T00:41:24.991Z,2.70
2023-05-19T00:41:37.082Z,2.70
2023-05-19T00:41:48.821Z,2.60
2023-05-19T00:42:00.783Z,2.47
2023-05-19T00:42:12.780Z,2.35
2023-05-19T00:42:24.664Z,2.45
2023-05-19T00:42:36.534Z,2.60
2023-05-19T00:42:48.368Z,2.17
2023-05-19T00:43:00.311Z,2.10
2023-05-19T00:43:12.579Z,2.13
2023-05-19T00:43:24.491Z,2.38
2023-05-19T00:43:36.497Z,2.40
2023-05-19T00:43:48.444Z,2.42
2023-05-19T00:44:19.150Z,2.20
2023-05-19T00:44:31.325Z,2.28
2023-05-19T00:44:43.179Z,2.22
2023-05-19T00:44:55.278Z,2.13
2023-05-19T00:45:08.416Z,2.13
2023-05-19T00:45:20.234Z,2.20
2023-05-19T00:45:32.925Z,2.15
2023-05-19T00:45:44.797Z,2.15
2023-05-19T00:45:57.149Z,2.28
2023-05-19T00:46:09.202Z,2.63
2023-05-19T00:46:21.100Z,2.70
2023-05-19T00:46:33.073Z,2.60
2023-05-19T00:46:45.297Z,2.60
2023-05-19T00:46:57.788Z,2.40
2023-05-19T00:47:09.721Z,2.63
2023-05-19T00:47:21.826Z,2.35
2023-05-19T00:47:34.196Z,1.95
2023-05-19T00:47:46.331Z,2.10
2023-05-19T00:47:58.350Z,2.35
2023-05-19T00:48:10.734Z,2.67
2023-05-19T00:48:22.908Z,2.55
2023-05-19T00:48:34.800Z,2.67
2023-05-19T00:48:46.727Z,2.53
2023-05-19T00:48:58.652Z,2.25
2023-05-19T00:49:10.459Z,2.15
2023-05-19T00:49:22.233Z,1.98
2023-05-19T00:49:35.355Z,2.00
2023-05-19T00:49:47.201Z,2.38
2023-05-19T00:49:59.392Z,2.35
2023-05-19T00:50:11.372Z,2.28
2023-05-19T00:50:23.875Z,2.50
2023-05-19T00:50:36.388Z,2.70
2023-05-19T00:50:49.132Z,2.67
2023-05-19T00:51:01.255Z,2.10
2023-05-19T00:51:14.123Z,2.15
2023-05-19T00:51:28.139Z,2.53
2023-05-19T00:51:41.096Z,2.75
2023-05-19T00:51:55.634Z,2.55
2023-05-19T00:52:07.613Z,2.25
2023-05-19T00:52:19.645Z,2.17
2023-05-19T00:52:31.537Z,2.50
2023-05-19T00:52:43.525Z,2.88
2023-05-19T00:52:55.663Z,2.67
2023-05-19T00:53:07.953Z,2.47
2023-05-19T00:53:20.606Z,2.30
2023-05-19T00:53:34.070Z,2.35
2023-05-19T00:53:47.907Z,2.70
2023-05-19T00:53:59.818Z,2.42
2023-05-19T00:54:11.637Z,2.35
2023-05-19T00:54:24.126Z,2.15
2023-05-19T00:54:36.320Z,2.42
2023-05-19T00:54:49.471Z,2.47
2023-05-19T00:55:01.396Z,2.55
2023-05-19T00:55:13.506Z,2.50
2023-05-19T00:55:31.515Z,2.47
2023-05-19T00:55:44.377Z,2.40
2023-05-19T00:55:56.830Z,2.38
2023-05-19T00:56:08.817Z,2.38
2023-05-19T00:56:20.973Z,2.50
2023-05-19T00:56:33.264Z,2.88
2023-05-19T00:56:45.444Z,2.97
2023-05-19T00:56:59.482Z,3.95
2023-05-19T00:57:11.890Z,4.32
2023-05-19T00:57:23.910Z,9.90
2023-05-19T00:57:36.538Z,12.82
2023-05-19T00:57:49.821Z,12.43
2023-05-19T00:58:04.396Z,5.90
2023-05-19T00:58:16.987Z,3.88
2023-05-19T00:58:30.519Z,2.80
2023-05-19T00:58:42.773Z,2.60
2023-05-19T00:58:55.143Z,2.85
2023-05-19T00:59:08.267Z,2.90
2023-05-19T00:59:20.116Z,2.90
2023-05-19T00:59:31.995Z,2.80
2023-05-19T00:59:43.886Z,2.63
2023-05-19T00:59:55.900Z,2.65
2023-05-19T01:00:09.327Z,2.75
2023-05-19T01:00:21.628Z,2.53
2023-05-19T01:00:34.447Z,2.40
2023-05-19T01:00:46.608Z,2.65
2023-05-19T01:01:05.034Z,2.80
2023-05-19T01:01:17.867Z,2.85
2023-05-19T01:01:29.884Z,2.75
2023-05-19T01:01:41.948Z,2.70
2023-05-19T01:01:54.174Z,2.80
2023-05-19T01:02:06.477Z,2.70
2023-05-19T01:02:18.350Z,2.78
2023-05-19T01:02:30.485Z,2.50
2023-05-19T01:02:43.147Z,2.53
2023-05-19T01:02:55.282Z,2.50
2023-05-19T01:03:07.436Z,2.45
2023-05-19T01:03:19.625Z,2.55
2023-05-19T01:03:32.539Z,2.67
2023-05-19T01:03:45.056Z,2.85
2023-05-19T01:03:57.410Z,2.80
2023-05-19T01:04:09.518Z,2.60
2023-05-19T01:04:21.486Z,2.45
2023-05-19T01:04:34.695Z,2.38
2023-05-19T01:04:47.145Z,2.20
2023-05-19T01:05:00.157Z,2.50
2023-05-19T01:05:13.225Z,2.75
2023-05-19T01:05:25.608Z,2.63
2023-05-19T01:05:39.150Z,2.42
2023-05-19T01:05:51.028Z,2.40
2023-05-19T01:06:03.424Z,2.65
2023-05-19T01:06:15.633Z,2.90
2023-05-19T01:06:27.606Z,2.83
2023-05-19T01:06:39.522Z,2.78
2023-05-19T01:06:51.651Z,2.75
2023-05-19T01:07:05.644Z,2.67
2023-05-19T01:07:17.738Z,2.50
2023-05-19T01:07:30.137Z,2.53
2023-05-19T01:07:42.809Z,2.70
2023-05-19T01:07:55.597Z,2.70
2023-05-19T01:08:07.755Z,2.75
2023-05-19T01:08:20.083Z,2.75
2023-05-19T01:08:32.639Z,2.85
2023-05-19T01:08:45.235Z,3.08
2023-05-19T01:08:57.282Z,2.92
2023-05-19T01:09:09.155Z,2.50
2023-05-19T01:09:21.450Z,2.40
2023-05-19T01:09:33.666Z,2.42
2023-05-19T01:09:47.357Z,2.45
2023-05-19T01:09:59.136Z,2.72
2023-05-19T01:10:11.139Z,2.90
2023-05-19T01:10:22.973Z,2.80
2023-05-19T01:10:34.928Z,2.65
2023-05-19T01:10:46.754Z,2.78
2023-05-19T01:10:58.627Z,2.78
2023-05-19T01:11:10.511Z,2.68
2023-05-19T01:11:22.434Z,2.50
2023-05-19T01:11:34.172Z,2.53
2023-05-19T01:11:45.958Z,2.50
2023-05-19T01:11:57.811Z,2.67
2023-05-19T01:12:09.824Z,2.63
2023-05-19T01:12:21.761Z,2.72
2023-05-19T01:12:34.082Z,2.70
2023-05-19T01:12:47.806Z,2.53
2023-05-19T01:13:00.261Z,2.70
2023-05-19T01:13:12.176Z,2.67
2023-05-19T01:13:24.443Z,3.40
2023-05-19T01:13:37.182Z,3.50
2023-05-19T01:13:50.751Z,2.78
2023-05-19T01:14:02.690Z,2.58
2023-05-19T01:14:15.014Z,2.80
2023-05-19T01:14:29.899Z,2.85
2023-05-19T01:14:42.075Z,3.03
2023-05-19T01:14:53.969Z,3.03
2023-05-19T01:15:07.243Z,2.80
2023-05-19T01:15:19.944Z,2.88
2023-05-19T01:15:36.319Z,2.97
2023-05-19T01:15:59.773Z,2.78
2023-05-19T01:16:16.051Z,2.67
2023-05-19T01:16:31.550Z,2.72
2023-05-19T01:16:50.674Z,2.80
2023-05-19T01:17:07.724Z,2.92
2023-05-19T01:17:28.643Z,2.85
2023-05-19T01:17:48.218Z,2.95
2023-05-19T01:18:05.213Z,2.70
2023-05-19T01:18:25.408Z,2.72
2023-05-19T01:18:44.003Z,3.08
2023-05-19T01:19:01.689Z,3.28
2023-05-19T01:19:31.577Z,3.30
2023-05-19T01:19:55.963Z,3.05
2023-05-19T01:20:16.589Z,2.80
2023-05-19T01:20:38.580Z,2.83
2023-05-19T01:20:58.675Z,2.50
2023-05-19T01:21:37.732Z,2.92
2023-05-19T01:22:23.226Z,2.83
2023-05-19T01:23:02.140Z,2.92
2023-05-19T01:23:33.665Z,2.95
2023-05-19T01:23:55.409Z,2.92
2023-05-19T01:24:23.379Z,3.20
2023-05-19T01:25:25.938Z,2.85
2023-05-19T01:26:08.789Z,2.90
2023-05-19T01:27:01.584Z,3.10
2023-05-19T01:27:39.375Z,2.97
2023-05-19T01:28:24.556Z,3.28
2023-05-19T01:28:54.779Z,3.08
2023-05-19T01:29:28.057Z,2.90
2023-05-19T01:30:00.227Z,3.10
2023-05-19T01:30:25.764Z,3.15
2023-05-19T01:30:41.032Z,3.10
2023-05-19T01:30:54.481Z,3.26
2023-05-19T01:31:07.529Z,3.25
2023-05-19T01:31:22.849Z,3.35
2023-05-19T01:31:36.114Z,3.05
2023-05-19T01:31:49.098Z,3.15
2023-05-19T01:32:04.654Z,3.20
2023-05-19T01:32:20.875Z,3.17
2023-05-19T01:32:34.799Z,3.08
2023-05-19T01:32:48.664Z,3.20
2023-05-19T01:33:02.807Z,3.47
2023-05-19T01:33:15.395Z,3.30
2023-05-19T01:33:30.707Z,3.13
2023-05-19T01:33:43.937Z,3.40
2023-05-19T01:33:57.262Z,3.33
2023-05-19T01:34:12.214Z,3.15
2023-05-19T01:34:26.656Z,3.30
2023-05-19T01:34:43.852Z,3.50
2023-05-19T01:34:57.127Z,3.83
2023-05-19T01:35:10.234Z,3.72
2023-05-19T01:35:23.922Z,3.25
2023-05-19T01:35:37.684Z,3.10
2023-05-19T01:35:50.627Z,3.33
2023-05-19T01:36:05.646Z,3.42
2023-05-19T01:36:19.870Z,3.20
2023-05-19T01:36:33.159Z,3.53
2023-05-19T01:36:46.615Z,3.88
2023-05-19T01:37:00.760Z,3.88
2023-05-19T01:37:14.887Z,3.55
2023-05-19T01:37:27.320Z,3.20
2023-05-19T01:37:40.497Z,3.28
2023-05-19T01:37:57.337Z,3.10
2023-05-19T01:38:10.485Z,3.15
2023-05-19T01:38:24.318Z,3.50
2023-05-19T01:38:38.626Z,3.53
2023-05-19T01:38:52.149Z,3.40
2023-05-19T01:39:04.555Z,3.38
2023-05-19T01:39:16.698Z,3.35
2023-05-19T01:39:28.647Z,3.35
2023-05-19T01:39:41.700Z,3.42
2023-05-19T01:39:54.382Z,3.22
2023-05-19T01:40:08.336Z,3.58
2023-05-19T01:40:22.774Z,3.80
2023-05-19T01:40:38.176Z,3.65
2023-05-19T01:40:52.161Z,3.78
2023-05-19T01:41:06.162Z,3.63
2023-05-19T01:41:21.561Z,3.40
2023-05-19T01:41:34.235Z,3.45
2023-05-19T01:41:47.511Z,3.60
2023-05-19T01:42:01.635Z,3.45
2023-05-19T01:42:15.167Z,3.20
2023-05-19T01:42:27.679Z,3.40
2023-05-19T01:42:40.730Z,3.78
2023-05-19T01:42:57.444Z,3.80
2023-05-19T01:43:12.552Z,3.83
2023-05-19T01:43:26.481Z,3.67
2023-05-19T01:43:39.010Z,3.40
2023-05-19T01:43:51.219Z,3.03
2023-05-19T01:44:03.284Z,3.42
2023-05-19T01:44:15.559Z,3.53
2023-05-19T01:44:29.633Z,3.60
2023-05-19T01:44:42.178Z,3.67
2023-05-19T01:44:54.722Z,3.35
2023-05-19T01:45:08.178Z,3.20
2023-05-19T01:45:22.204Z,3.53
2023-05-19T01:45:34.671Z,3.78
2023-05-19T01:45:47.192Z,3.88
2023-05-19T01:46:00.506Z,3.63
2023-05-19T01:46:12.948Z,3.55
2023-05-19T01:46:25.371Z,3.40
2023-05-19T01:46:38.656Z,3.42
2023-05-19T01:46:51.392Z,3.53
2023-05-19T01:47:04.001Z,3.60
2023-05-19T01:47:16.160Z,3.42
2023-05-19T01:47:28.244Z,3.22
2023-05-19T01:47:43.473Z,3.35
2023-05-19T01:47:57.761Z,3.65
2023-05-19T01:48:11.280Z,3.70
2023-05-19T01:48:24.707Z,3.33
2023-05-19T01:48:37.085Z,3.53
2023-05-19T01:48:49.125Z,3.55
2023-05-19T01:49:01.914Z,3.67
2023-05-19T01:49:13.911Z,3.60
2023-05-19T01:49:25.933Z,3.60
2023-05-19T01:49:39.125Z,3.80
2023-05-19T01:49:51.079Z,4.05
2023-05-19T01:50:03.311Z,4.00
2023-05-19T01:50:15.241Z,4.00
2023-05-19T01:50:28.719Z,3.88
2023-05-19T01:50:40.939Z,3.80
2023-05-19T01:50:52.817Z,3.95
2023-05-19T01:51:05.136Z,3.80
2023-05-19T01:51:16.986Z,3.75
2023-05-19T01:51:28.978Z,3.88
2023-05-19T01:51:41.160Z,4.00
2023-05-19T01:51:53.355Z,4.00
2023-05-19T01:52:07.531Z,3.65
2023-05-19T01:52:19.432Z,3.80
2023-05-19T01:52:31.210Z,4.00
2023-05-19T01:52:43.205Z,4.07
2023-05-19T01:52:55.322Z,3.97
2023-05-19T01:53:07.231Z,4.00
2023-05-19T01:53:19.701Z,4.07
2023-05-19T01:53:31.804Z,4.00
2023-05-19T01:53:45.436Z,3.72
2023-05-19T01:53:57.295Z,4.05
2023-05-19T01:54:09.161Z,4.05
2023-05-19T01:54:20.965Z,3.95
2023-05-19T01:54:32.894Z,3.67
2023-05-19T01:54:44.992Z,3.60
2023-05-19T01:54:58.439Z,3.92
2023-05-19T01:55:10.682Z,4.07
2023-05-19T01:55:23.500Z,4.28
2023-05-19T01:55:40.603Z,4.32
2023-05-19T01:55:55.523Z,4.15
2023-05-19T01:56:07.863Z,4.00
2023-05-19T01:56:28.397Z,3.75
2023-05-19T01:56:46.682Z,3.95
2023-05-19T01:57:08.505Z,4.20
2023-05-19T01:57:31.271Z,4.00
2023-05-19T01:57:52.100Z,3.85
2023-05-19T01:58:13.758Z,4.07
2023-05-19T01:58:35.278Z,4.00
2023-05-19T01:58:48.540Z,4.20
2023-05-19T01:59:07.427Z,3.75
2023-05-19T01:59:28.009Z,3.50
2023-05-19T01:59:50.779Z,3.60
2023-05-19T02:00:10.086Z,3.92
2023-05-19T02:00:35.154Z,3.75
2023-05-19T02:00:53.018Z,4.40
2023-05-19T02:01:14.858Z,3.85
2023-05-19T02:01:34.051Z,4.13
2023-05-19T02:01:53.345Z,4.00
2023-05-19T02:02:12.710Z,3.92
2023-05-19T02:02:30.439Z,3.88
2023-05-19T02:03:00.132Z,3.78
2023-05-19T02:03:26.498Z,4.13
2023-05-19T02:03:51.542Z,3.85
2023-05-19T02:04:17.204Z,3.83
2023-05-19T02:04:36.059Z,4.15
2023-05-19T02:04:55.854Z,4.25
2023-05-19T02:05:18.589Z,4.13
2023-05-19T02:05:38.366Z,4.07
2023-05-19T02:05:55.589Z,4.32
2023-05-19T02:06:19.148Z,4.10
2023-05-19T02:06:41.713Z,3.65
2023-05-19T02:07:03.585Z,3.97
2023-05-19T02:07:23.999Z,3.80
2023-05-19T02:07:44.307Z,3.78
2023-05-19T02:08:04.225Z,4.18
2023-05-19T02:08:22.259Z,4.13
2023-05-19T02:08:42.823Z,3.90
2023-05-19T02:09:02.337Z,4.45
2023-05-19T02:09:18.694Z,4.82
2023-05-19T02:09:38.688Z,4.60
2023-05-19T02:09:54.633Z,3.40
2023-05-19T02:10:10.792Z,3.67
2023-05-19T02:10:29.026Z,4.00
2023-05-19T02:10:45.542Z,4.00
2023-05-19T02:11:04.895Z,4.28
2023-05-19T02:11:25.955Z,4.53
2023-05-19T02:11:42.024Z,4.43
2023-05-19T02:11:58.669Z,3.80
2023-05-19T02:12:19.112Z,3.90
2023-05-19T02:12:34.478Z,3.83
2023-05-19T02:12:48.617Z,4.10
2023-05-19T02:13:04.643Z,4.18
2023-05-19T02:13:18.212Z,4.05
2023-05-19T02:13:34.386Z,3.83
2023-05-19T02:13:50.335Z,4.15
2023-05-19T02:14:06.742Z,4.32
2023-05-19T02:14:21.378Z,3.72
2023-05-19T02:14:39.060Z,3.97
2023-05-19T02:14:58.242Z,4.15
2023-05-19T02:15:14.455Z,3.70
2023-05-19T02:15:31.881Z,3.67
2023-05-19T02:15:45.340Z,3.67
2023-05-19T02:16:03.490Z,3.88
2023-05-19T02:16:17.218Z,4.35
2023-05-19T02:16:29.700Z,4.22
2023-05-19T02:16:45.925Z,4.13
2023-05-19T02:16:58.098Z,3.88
2023-05-19T02:17:11.654Z,3.78
2023-05-19T02:17:27.269Z,3.97
2023-05-19T02:17:41.705Z,4.18
2023-05-19T02:17:55.855Z,3.65
2023-05-19T02:18:10.306Z,3.38
2023-05-19T02:18:23.219Z,3.75
2023-05-19T02:18:36.148Z,4.07
2023-05-19T02:18:48.042Z,4.00
2023-05-19T02:19:00.044Z,3.85
2023-05-19T02:19:21.033Z,3.97
2023-05-19T02:19:35.325Z,4.05
2023-05-19T02:19:47.444Z,4.05
2023-05-19T02:19:59.925Z,3.95
2023-05-19T02:20:12.061Z,3.92
2023-05-19T02:20:24.198Z,3.92
2023-05-19T02:20:36.164Z,4.43
2023-05-19T02:20:47.977Z,4.10
2023-05-19T02:20:59.822Z,4.22
2023-05-19T02:21:11.695Z,4.05
2023-05-19T02:21:23.489Z,3.80
2023-05-19T02:21:35.351Z,3.70
2023-05-19T02:21:47.187Z,4.00
2023-05-19T02:21:59.268Z,3.92
2023-05-19T02:22:11.316Z,4.20
2023-05-19T02:22:23.086Z,4.10
2023-05-19T02:22:35.525Z,4.03
2023-05-19T02:22:47.684Z,3.95
2023-05-19T02:22:59.502Z,3.95
2023-05-19T02:23:11.301Z,3.85
2023-05-19T02:23:23.158Z,4.38
2023-05-19T02:23:35.049Z,4.47
2023-05-19T02:23:47.309Z,4.22
2023-05-19T02:23:59.136Z,3.92
2023-05-19T02:24:10.954Z,3.90
2023-05-19T02:24:23.443Z,3.97
2023-05-19T02:24:35.385Z,4.10
2023-05-19T02:24:47.201Z,4.25
2023-05-19T02:24:59.027Z,4.57
2023-05-19T02:25:11.434Z,4.43
2023-05-19T02:25:23.311Z,4.25
2023-05-19T02:25:35.138Z,4.10
2023-05-19T02:25:46.962Z,4.13
2023-05-19T02:25:58.937Z,4.38
2023-05-19T02:26:10.813Z,4.70
2023-05-19T02:26:22.589Z,4.43
2023-05-19T02:26:34.522Z,4.13
2023-05-19T02:26:49.620Z,4.15
2023-05-19T02:27:01.464Z,4.13
2023-05-19T02:27:13.521Z,4.55
2023-05-19T02:27:25.520Z,4.35
2023-05-19T02:27:38.736Z,4.10
2023-05-19T02:27:52.379Z,4.38
2023-05-19T02:28:04.544Z,4.22
2023-05-19T02:28:16.720Z,4.30
2023-05-19T02:28:28.632Z,4.60
2023-05-19T02:28:40.534Z,4.63
2023-05-19T02:28:52.406Z,4.32
2023-05-19T02:29:04.296Z,4.20
2023-05-19T02:29:16.112Z,4.32
2023-05-19T02:29:28.499Z,4.45
2023-05-19T02:29:40.367Z,4.70
2023-05-19T02:29:52.517Z,4.65
2023-05-19T02:30:04.870Z,4.53
2023-05-19T02:30:16.838Z,4.53
2023-05-19T02:30:30.163Z,4.53
2023-05-19T02:30:44.714Z,4.80
2023-05-19T02:30:56.636Z,4.72
2023-05-19T02:31:08.409Z,4.32
2023-05-19T02:31:20.477Z,4.30
2023-05-19T02:31:32.466Z,4.35
2023-05-19T02:31:44.537Z,4.95
2023-05-19T02:31:56.666Z,5.00
2023-05-19T02:32:08.689Z,4.60
2023-05-19T02:32:21.015Z,4.30
2023-05-19T02:32:33.180Z,4.20
2023-05-19T02:32:45.114Z,4.07
2023-05-19T02:32:57.104Z,4.20
2023-05-19T02:33:08.971Z,4.20
2023-05-19T02:33:20.781Z,4.05
2023-05-19T02:33:32.631Z,4.10
2023-05-19T02:33:44.526Z,4.03
2023-05-19T02:33:56.456Z,3.83
2023-05-19T02:34:08.369Z,3.88
2023-05-19T02:34:21.831Z,3.83
2023-05-19T02:34:33.676Z,3.70
2023-05-19T02:34:45.678Z,3.88
2023-05-19T02:34:58.187Z,4.20
2023-05-19T02:35:10.316Z,4.13
2023-05-19T02:35:22.718Z,4.05
2023-05-19T02:35:34.652Z,4.10
2023-05-19T02:35:46.507Z,4.32
2023-05-19T02:35:59.780Z,4.30
2023-05-19T02:36:11.639Z,4.10
2023-05-19T02:36:23.437Z,4.55
2023-05-19T02:36:36.516Z,4.50
2023-05-19T02:36:48.639Z,4.30
2023-05-19T02:37:00.694Z,3.97
2023-05-19T02:37:12.956Z,4.38
2023-05-19T02:37:24.927Z,4.45
2023-05-19T02:37:36.802Z,4.50
2023-05-19T02:37:48.727Z,4.40
2023-05-19T02:38:00.607Z,4.40
2023-05-19T02:38:12.557Z,4.32
2023-05-19T02:38:24.465Z,4.25
2023-05-19T02:38:38.009Z,4.30
2023-05-19T02:38:49.757Z,4.28
2023-05-19T02:39:01.708Z,4.07
2023-05-19T02:39:13.880Z,4.00
2023-05-19T02:39:25.701Z,3.92
2023-05-19T02:39:37.624Z,4.20
2023-05-19T02:39:49.717Z,4.40
2023-05-19T02:40:01.566Z,4.53
2023-05-19T02:40:14.917Z,4.80
2023-05-19T02:40:26.879Z,4.30
2023-05-19T02:40:38.724Z,4.07
2023-05-19T02:40:51.659Z,3.97
2023-05-19T02:41:03.604Z,4.28
2023-05-19T02:41:16.080Z,4.45
2023-05-19T02:41:28.015Z,4.28
2023-05-19T02:41:39.903Z,4.38
2023-05-19T02:41:52.097Z,4.22
2023-05-19T02:42:04.463Z,4.47
2023-05-19T02:42:16.454Z,4.40
2023-05-19T02:42:28.227Z,4.20
2023-05-19T02:42:40.394Z,4.35
2023-05-19T02:42:52.193Z,4.40
2023-05-19T02:43:03.921Z,4.45
2023-05-19T02:43:15.674Z,4.15
2023-05-19T02:43:27.474Z,4.13
2023-05-19T02:43:39.352Z,4.30
2023-05-19T02:43:51.143Z,4.57
2023-05-19T02:44:03.165Z,4.80
2023-05-19T02:44:15.560Z,4.60
2023-05-19T02:44:27.490Z,4.22
2023-05-19T02:44:39.365Z,4.10
2023-05-19T02:44:51.177Z,4.40
2023-05-19T02:45:03.180Z,4.18
2023-05-19T02:45:15.227Z,4.28
2023-05-19T02:45:27.021Z,4.70
2023-05-19T02:45:40.292Z,4.72
2023-05-19T02:45:52.110Z,4.68
2023-05-19T02:46:04.809Z,4.70
2023-05-19T02:46:16.893Z,4.35
2023-05-19T02:46:28.855Z,4.45
2023-05-19T02:46:40.766Z,4.47
2023-05-19T02:46:52.881Z,4.18
2023-05-19T02:47:05.107Z,4.25
2023-05-19T02:47:17.109Z,4.63
2023-05-19T02:47:29.668Z,4.90
2023-05-19T02:47:41.611Z,4.70
2023-05-19T02:47:53.581Z,5.32
2023-05-19T02:48:06.725Z,5.25
2023-05-19T02:48:18.547Z,5.53
2023-05-19T02:48:31.735Z,4.65
2023-05-19T02:48:43.559Z,4.68
2023-05-19T02:48:55.822Z,4.68
2023-05-19T02:49:07.600Z,4.78
2023-05-19T02:49:19.445Z,4.38
2023-05-19T02:49:31.320Z,4.38
2023-05-19T02:49:43.346Z,4.10
2023-05-19T02:49:55.279Z,4.20
2023-05-19T02:50:08.499Z,4.43
2023-05-19T02:50:20.372Z,4.60
2023-05-19T02:50:32.375Z,4.80
2023-05-19T02:50:44.431Z,5.15
2023-05-19T02:50:56.240Z,4.97
2023-05-19T02:51:08.086Z,4.95
2023-05-19T02:51:19.952Z,4.85
2023-05-19T02:51:31.949Z,4.60
2023-05-19T02:51:43.932Z,4.50
2023-05-19T02:51:55.953Z,5.80
2023-05-19T02:52:08.407Z,6.88
2023-05-19T02:52:20.389Z,6.20
2023-05-19T02:52:32.345Z,5.30
2023-05-19T02:52:44.314Z,5.05
2023-05-19T02:52:56.143Z,5.50
2023-05-19T02:53:08.000Z,5.72
2023-05-19T02:53:19.919Z,5.25
2023-05-19T02:53:32.365Z,5.18
2023-05-19T02:53:44.330Z,5.00
2023-05-19T02:53:56.135Z,5.07
2023-05-19T02:54:07.982Z,4.75
2023-05-19T02:54:19.920Z,4.53
2023-05-19T02:54:32.106Z,4.72
2023-05-19T02:54:44.229Z,4.85
2023-05-19T02:54:56.010Z,4.85
2023-05-19T02:55:08.761Z,4.80
2023-05-19T02:55:20.648Z,4.50
2023-05-19T02:55:32.595Z,4.35
2023-05-19T02:55:44.540Z,4.55
2023-05-19T02:55:56.332Z,4.75
2023-05-19T02:56:08.278Z,4.65
2023-05-19T02:56:20.090Z,4.60
2023-05-19T02:56:32.003Z,4.80
2023-05-19T02:56:43.869Z,4.95
2023-05-19T02:56:55.822Z,4.95
2023-05-19T02:57:07.863Z,4.85
2023-05-19T02:57:19.696Z,4.93
2023-05-19T02:57:34.752Z,4.86
2023-05-19T02:57:48.410Z,5.10
2023-05-19T02:58:00.295Z,4.85
2023-05-19T02:58:12.055Z,4.57
2023-05-19T02:58:23.898Z,4.75
2023-05-19T02:58:35.826Z,5.05
2023-05-19T02:58:47.892Z,5.18
2023-05-19T02:58:59.795Z,4.85
2023-05-19T02:59:11.667Z,4.95
2023-05-19T02:59:25.507Z,4.80
2023-05-19T02:59:37.674Z,4.60
2023-05-19T02:59:49.707Z,4.78
2023-05-19T03:00:01.623Z,4.95
2023-05-19T03:00:14.496Z,4.68
2023-05-19T03:00:26.524Z,4.45
2023-05-19T03:00:40.988Z,4.45
2023-05-19T03:00:52.900Z,4.60
2023-05-19T03:01:04.816Z,5.18
2023-05-19T03:01:16.797Z,5.70
2023-05-19T03:01:28.842Z,5.43
2023-05-19T03:01:40.793Z,4.90
2023-05-19T03:01:56.111Z,4.90
2023-05-19T03:02:08.023Z,5.13
2023-05-19T03:02:20.004Z,5.32